createdAt,value
2022-08-25T00:02:03.276Z,83.58
2022-08-25T00:04:31.615Z,83.81
2022-08-25T00:07:03.180Z,83.87
2022-08-25T00:09:32.020Z,83.75
2022-08-25T00:12:00.870Z,83.32
2022-08-25T00:14:31.595Z,83.15
2022-08-25T00:16:58.952Z,83.38
2022-08-25T00:19:31.983Z,83.33
2022-08-25T00:21:59.069Z,83.38
2022-08-25T00:24:25.764Z,83.68
2022-08-25T00:26:54.948Z,83.94
2022-08-25T00:29:22.811Z,83.81
2022-08-25T00:31:51.589Z,83.50
2022-08-25T00:34:22.574Z,83.20
2022-08-25T00:36:51.763Z,83.09
2022-08-25T00:39:21.023Z,83.15
2022-08-25T00:41:49.194Z,83.02
2022-08-25T00:44:19.004Z,82.81
2022-08-25T00:46:52.609Z,82.74
2022-08-25T00:49:36.321Z,82.47
2022-08-25T00:52:07.611Z,82.36
2022-08-25T00:54:40.977Z,82.42
2022-08-25T00:57:10.521Z,82.36
2022-08-25T00:59:37.234Z,82.36
2022-08-25T01:02:06.105Z,82.67
2022-08-25T01:04:37.640Z,82.89
2022-08-25T01:07:05.312Z,83.08
2022-08-25T01:09:32.501Z,82.97
2022-08-25T01:12:00.565Z,83.08
2022-08-25T01:14:28.597Z,82.98
2022-08-25T01:16:55.372Z,83.27
2022-08-25T01:19:22.111Z,83.19
2022-08-25T01:21:50.916Z,83.48
2022-08-25T01:24:38.771Z,83.44
2022-08-25T01:27:05.755Z,83.80
2022-08-25T01:29:32.391Z,83.95
2022-08-25T01:32:02.301Z,84.29
2022-08-25T01:34:32.215Z,83.92
2022-08-25T01:37:00.911Z,84.18
2022-08-25T01:39:29.754Z,84.27
2022-08-25T01:42:09.179Z,84.47
2022-08-25T01:44:44.066Z,84.57
2022-08-25T01:47:12.038Z,84.28
2022-08-25T01:49:38.465Z,84.60
2022-08-25T01:52:25.185Z,84.67
2022-08-25T01:54:53.712Z,84.69
2022-08-25T01:57:20.483Z,84.52
2022-08-25T01:59:47.470Z,84.64
2022-08-25T02:02:14.060Z,84.82
2022-08-25T02:04:44.394Z,84.72
2022-08-25T02:07:11.530Z,84.63
2022-08-25T02:09:41.442Z,84.84
2022-08-25T02:12:11.863Z,85.15
2022-08-25T02:14:38.388Z,85.15
2022-08-25T02:17:05.298Z,85.28
2022-08-25T02:19:32.390Z,85.51
2022-08-25T02:22:00.149Z,85.23
2022-08-25T02:24:26.545Z,85.01
2022-08-25T02:26:53.072Z,84.79
2022-08-25T02:29:19.624Z,85.07
2022-08-25T02:31:46.128Z,85.27
2022-08-25T02:34:15.132Z,85.33
2022-08-25T02:36:42.944Z,85.81
2022-08-25T02:39:10.690Z,85.47
2022-08-25T02:41:37.209Z,85.49
2022-08-25T02:44:04.790Z,85.63
2022-08-25T02:46:31.878Z,85.79
2022-08-25T02:48:58.769Z,85.97
2022-08-25T02:51:28.387Z,85.61
2022-08-25T02:53:54.833Z,85.17
2022-08-25T02:56:21.418Z,84.69
2022-08-25T02:58:47.945Z,85.26
2022-08-25T03:01:15.506Z,85.12
2022-08-25T03:03:44.394Z,84.70
2022-08-25T03:06:14.282Z,84.73
2022-08-25T03:08:42.106Z,84.28
2022-08-25T03:11:09.184Z,83.34
2022-08-25T03:13:36.161Z,83.42
2022-08-25T03:16:04.502Z,82.56
2022-08-25T03:18:31.234Z,82.27
2022-08-25T03:20:58.813Z,81.77
2022-08-25T03:23:25.518Z,81.85
2022-08-25T03:26:13.257Z,81.43
2022-08-25T03:28:39.919Z,80.43
2022-08-25T03:31:06.777Z,80.46
2022-08-25T03:33:33.602Z,80.48
2022-08-25T03:36:00.226Z,79.86
2022-08-25T03:38:27.285Z,79.57
2022-08-25T03:40:54.564Z,78.48
2022-08-25T03:43:21.984Z,78.24
2022-08-25T03:45:48.755Z,77.64
2022-08-25T03:48:17.732Z,77.98
2022-08-25T03:50:50.682Z,77.30
2022-08-25T03:53:19.854Z,76.84
2022-08-25T03:55:47.144Z,76.63
2022-08-25T03:58:14.512Z,76.22
2022-08-25T04:00:41.297Z,76.93
2022-08-25T04:03:07.801Z,76.79
2022-08-25T04:05:34.309Z,76.88
2022-08-25T04:08:01.868Z,77.28
2022-08-25T04:10:29.409Z,75.77
2022-08-25T04:12:56.076Z,74.22
2022-08-25T04:15:23.529Z,74.99
2022-08-25T04:17:55.332Z,74.76
2022-08-25T04:20:21.763Z,74.67
2022-08-25T04:22:48.188Z,75.10
2022-08-25T04:25:14.772Z,74.81
2022-08-25T04:27:41.554Z,75.16
2022-08-25T04:30:08.772Z,75.69
2022-08-25T04:32:37.036Z,75.59
2022-08-25T04:35:05.255Z,73.86
2022-08-25T04:37:33.253Z,73.30
2022-08-25T04:39:59.945Z,73.88
2022-08-25T04:42:26.973Z,73.86
2022-08-25T04:44:54.335Z,73.49
2022-08-25T04:47:20.833Z,72.43
2022-08-25T04:49:47.770Z,72.35
2022-08-25T04:52:14.764Z,72.69
2022-08-25T04:54:42.112Z,71.29
2022-08-25T04:57:08.562Z,70.75
2022-08-25T04:59:34.997Z,70.58
2022-08-25T05:02:03.071Z,69.48
2022-08-25T05:04:30.815Z,68.50
2022-08-25T05:06:57.656Z,68.64
2022-08-25T05:09:25.346Z,68.87
2022-08-25T05:11:52.136Z,68.44
2022-08-25T05:14:21.623Z,67.66
2022-08-25T05:16:52.378Z,67.32
2022-08-25T05:19:19.442Z,67.09
2022-08-25T05:21:46.081Z,66.44
2022-08-25T05:24:12.522Z,66.51
2022-08-25T05:26:42.033Z,66.99
2022-08-25T05:29:10.904Z,67.94
2022-08-25T05:31:42.287Z,68.31
2022-08-25T05:34:09.025Z,69.11
2022-08-25T05:36:35.634Z,68.06
2022-08-25T05:39:02.653Z,67.87
2022-08-25T05:41:30.573Z,68.21
2022-08-25T05:43:57.255Z,67.44
2022-08-25T05:46:24.203Z,67.15
2022-08-25T05:48:50.930Z,67.24
2022-08-25T05:51:18.495Z,66.12
2022-08-25T05:53:49.303Z,65.49
2022-08-25T05:56:16.109Z,65.41
2022-08-25T05:58:43.321Z,65.09
2022-08-25T06:01:37.200Z,64.75
2022-08-25T06:04:05.072Z,64.59
2022-08-25T06:06:31.677Z,63.80
2022-08-25T06:08:58.093Z,64.32
2022-08-25T06:11:24.546Z,64.12
2022-08-25T06:13:50.998Z,63.96
2022-08-25T06:16:18.276Z,64.16
2022-08-25T06:18:44.717Z,63.18
2022-08-25T06:21:13.582Z,63.28
2022-08-25T06:23:40.605Z,64.46
2022-08-25T06:26:10.562Z,64.78
2022-08-25T06:28:40.719Z,65.10
2022-08-25T06:31:07.502Z,64.83
2022-08-25T06:33:34.081Z,63.00
2022-08-25T06:36:00.567Z,62.56
2022-08-25T06:38:27.214Z,62.07
2022-08-25T06:40:53.755Z,62.93
2022-08-25T06:43:21.507Z,62.23
2022-08-25T06:45:48.563Z,63.03
2022-08-25T06:48:15.939Z,61.75
2022-08-25T06:50:43.481Z,60.93
2022-08-25T06:53:10.039Z,62.46
2022-08-25T06:55:36.936Z,62.43
2022-08-25T06:58:04.928Z,61.34
2022-08-25T07:00:33.505Z,61.26
2022-08-25T07:03:01.412Z,61.69
2022-08-25T07:05:40.814Z,62.03
2022-08-25T07:08:11.626Z,62.77
2022-08-25T07:10:38.118Z,61.70
2022-08-25T07:13:04.546Z,60.48
2022-08-25T07:15:31.019Z,59.87
2022-08-25T07:17:57.695Z,60.02
2022-08-25T07:22:52.536Z,58.78
2022-08-25T07:25:19.018Z,57.49
2022-08-25T07:27:45.988Z,59.42
2022-08-25T07:30:12.542Z,59.91
2022-08-25T07:32:43.114Z,57.79
2022-08-25T07:35:19.059Z,57.03
2022-08-25T07:37:51.764Z,56.93
2022-08-25T07:40:24.588Z,57.52
2022-08-25T07:42:59.289Z,57.36
2022-08-25T07:45:30.577Z,56.39
2022-08-25T07:48:03.641Z,56.95
2022-08-25T07:50:31.396Z,55.65
2022-08-25T07:52:58.897Z,56.27
2022-08-25T07:55:27.244Z,56.12
2022-08-25T07:58:05.830Z,57.68
2022-08-25T08:00:34.129Z,55.00
2022-08-25T08:03:10.034Z,54.74
2022-08-25T08:05:41.556Z,55.65
2022-08-25T08:08:08.521Z,55.07
2022-08-25T08:11:00.639Z,54.77
2022-08-25T08:13:23.465Z,54.19
2022-08-25T08:15:49.931Z,55.40
2022-08-25T08:18:16.611Z,54.43
2022-08-25T08:20:45.706Z,54.95
2022-08-25T08:23:12.161Z,53.29
2022-08-25T08:25:38.689Z,52.69
2022-08-25T08:28:07.324Z,52.68
2022-08-25T08:30:36.490Z,52.64
2022-08-25T08:33:12.381Z,51.61
2022-08-25T08:35:41.073Z,53.79
2022-08-25T08:38:14.781Z,51.54
2022-08-25T08:44:45.525Z,53.62
2022-08-25T08:47:48.719Z,50.24
2022-08-25T08:50:33.266Z,51.82
2022-08-25T08:53:02.903Z,52.64
2022-08-25T08:55:36.923Z,51.66
2022-08-25T08:58:09.435Z,51.30
2022-08-25T09:00:42.137Z,51.97
2022-08-25T09:03:33.068Z,50.51
2022-08-25T09:06:06.779Z,50.31
2022-08-25T09:08:33.769Z,51.52
2022-08-25T09:11:10.375Z,51.15
2022-08-25T09:14:06.839Z,51.68
2022-08-25T09:16:57.454Z,50.36
2022-08-25T09:19:43.685Z,50.91
2022-08-25T09:22:35.891Z,46.23
2022-08-25T09:25:22.083Z,47.14
2022-08-25T09:28:20.276Z,47.08
2022-08-25T09:31:28.724Z,49.89
2022-08-25T09:33:58.284Z,45.80
2022-08-25T09:36:24.815Z,47.89
2022-08-25T09:38:51.574Z,44.84
2022-08-25T09:41:56.235Z,44.58
2022-08-25T09:44:26.867Z,46.60
2022-08-25T09:47:01.878Z,46.67
2022-08-25T09:50:04.377Z,43.93
2022-08-25T09:52:37.597Z,45.52
2022-08-25T09:55:16.153Z,43.20
2022-08-25T09:57:45.331Z,44.98
2022-08-25T10:00:14.435Z,45.88
2022-08-25T10:02:45.193Z,44.94
2022-08-25T10:05:23.496Z,46.04
2022-08-25T10:07:57.158Z,42.19
2022-08-25T10:10:27.948Z,43.61
2022-08-25T10:13:01.098Z,43.17
2022-08-25T10:15:36.639Z,42.20
2022-08-25T10:18:15.449Z,41.85
2022-08-25T10:20:44.832Z,42.34
2022-08-25T10:23:14.937Z,40.98
2022-08-25T10:25:57.958Z,42.33
2022-08-25T10:28:38.833Z,43.99
2022-08-25T10:31:33.117Z,44.02
2022-08-25T10:34:04.165Z,42.59
2022-08-25T10:36:58.433Z,41.77
2022-08-25T10:39:40.980Z,41.74
2022-08-25T10:42:13.405Z,39.58
2022-08-25T10:45:22.008Z,41.08
2022-08-25T10:48:26.539Z,35.85
2022-08-25T10:51:25.394Z,38.14
2022-08-25T10:54:28.702Z,38.12
2022-08-25T10:57:21.239Z,36.36
2022-08-25T11:00:00.411Z,36.43
2022-08-25T11:03:05.081Z,35.62
2022-08-25T11:05:55.956Z,36.68
2022-08-25T11:08:28.415Z,35.40
2022-08-25T11:11:03.725Z,36.50
2022-08-25T11:13:31.069Z,36.27
2022-08-25T11:16:21.762Z,37.27
2022-08-25T11:18:55.243Z,35.65
2022-08-25T11:21:31.627Z,37.25
2022-08-25T11:24:23.372Z,36.38
2022-08-25T11:26:55.624Z,38.05
2022-08-25T11:29:26.571Z,37.65
2022-08-25T11:31:54.359Z,37.29
2022-08-25T11:34:22.660Z,36.08
2022-08-25T11:36:54.947Z,37.59
2022-08-25T11:39:47.363Z,36.63
2022-08-25T11:42:43.057Z,38.21
2022-08-25T11:45:42.180Z,39.14
2022-08-25T11:48:22.045Z,36.86
2022-08-25T11:51:02.016Z,35.32
2022-08-25T11:53:32.125Z,37.35
2022-08-25T11:56:04.319Z,36.80
2022-08-25T11:58:44.712Z,34.30
2022-08-25T12:01:40.426Z,34.48
2022-08-25T12:04:44.182Z,36.07
2022-08-25T12:07:11.168Z,33.24
2022-08-25T12:09:49.856Z,32.22
2022-08-25T12:12:31.182Z,34.72
2022-08-25T12:15:46.455Z,35.96
2022-08-25T12:18:36.113Z,37.41
2022-08-25T12:21:14.087Z,34.43
2022-08-25T12:24:05.796Z,32.92
2022-08-25T12:26:51.586Z,32.00
2022-08-25T12:29:53.642Z,33.11
2022-08-25T12:32:40.660Z,40.14
2022-08-25T12:35:20.940Z,37.57
2022-08-25T12:38:11.612Z,31.54
2022-08-25T12:40:46.207Z,33.06
2022-08-25T12:43:33.509Z,33.19
2022-08-25T12:46:26.426Z,34.29
2022-08-25T12:52:49.785Z,36.97
2022-08-25T12:58:22.234Z,35.41
2022-08-25T13:01:32.842Z,35.66
2022-08-25T13:04:51.355Z,31.44
2022-08-25T13:07:42.694Z,32.20
2022-08-25T13:10:11.969Z,34.15
2022-08-25T13:13:08.941Z,36.33
2022-08-25T13:15:45.208Z,33.56
2022-08-25T13:18:23.095Z,34.01
2022-08-25T13:21:05.028Z,40.50
2022-08-25T13:26:54.007Z,32.57
2022-08-25T13:29:27.747Z,34.05
2022-08-25T13:32:01.292Z,36.86
2022-08-25T13:34:35.137Z,33.32
2022-08-25T13:37:30.451Z,35.17
2022-08-25T13:40:18.771Z,32.48
2022-08-25T13:43:33.618Z,33.83
2022-08-25T13:46:00.540Z,31.70
2022-08-25T13:48:36.066Z,35.73
2022-08-25T13:51:21.529Z,35.32
2022-08-25T13:53:53.857Z,32.97
2022-08-25T13:56:29.873Z,33.86
2022-08-25T13:59:02.705Z,32.92
2022-08-25T14:01:48.573Z,35.28
2022-08-25T14:04:23.387Z,33.42
2022-08-25T14:07:21.995Z,31.08
2022-08-25T14:09:55.494Z,31.44
2022-08-25T14:12:59.016Z,33.76
2022-08-25T14:15:33.997Z,33.07
2022-08-25T14:18:21.731Z,37.25
2022-08-25T14:20:54.915Z,34.73
2022-08-25T14:23:28.946Z,34.19
2022-08-25T14:26:13.098Z,34.69
2022-08-25T14:28:40.085Z,34.76
2022-08-25T14:31:20.333Z,35.57
2022-08-25T14:33:58.378Z,36.19
2022-08-25T14:36:32.948Z,38.08
2022-08-25T14:39:01.666Z,36.52
2022-08-25T14:41:28.357Z,36.25
2022-08-25T14:43:56.406Z,35.01
2022-08-25T14:46:27.103Z,37.52
2022-08-25T14:49:02.834Z,38.70
2022-08-25T14:51:37.222Z,39.07
2022-08-25T14:54:10.804Z,39.34
2022-08-25T14:56:48.401Z,40.24
2022-08-25T14:59:15.290Z,37.51
2022-08-25T15:01:42.492Z,39.70
2022-08-25T15:04:17.618Z,40.55
2022-08-25T15:06:47.449Z,40.30
2022-08-25T15:09:17.224Z,38.08
2022-08-25T15:11:47.315Z,38.90
2022-08-25T15:14:18.914Z,39.99
2022-08-25T15:16:57.709Z,41.81
2022-08-25T15:19:26.966Z,37.96
2022-08-25T15:21:58.153Z,35.74
2022-08-25T15:24:27.212Z,36.81
2022-08-25T15:27:05.587Z,39.15
2022-08-25T15:29:34.798Z,41.52
2022-08-25T15:32:03.397Z,42.14
2022-08-25T15:34:30.731Z,42.31
2022-08-25T15:36:58.911Z,41.18
2022-08-25T15:39:25.869Z,43.08
2022-08-25T15:41:52.785Z,44.14
2022-08-25T15:44:29.039Z,44.35
2022-08-25T15:46:56.389Z,45.80
2022-08-25T15:49:23.631Z,45.16
2022-08-25T15:51:54.976Z,46.04
2022-08-25T15:54:23.744Z,43.33
2022-08-25T15:56:54.460Z,45.54
2022-08-25T15:59:21.900Z,45.52
2022-08-25T16:01:49.231Z,44.88
2022-08-25T16:04:16.456Z,44.41
2022-08-25T16:06:44.641Z,42.92
2022-08-25T16:09:12.096Z,43.50
2022-08-25T16:11:42.500Z,44.21
2022-08-25T16:14:11.930Z,45.09
2022-08-25T16:16:43.710Z,46.57
2022-08-25T16:19:11.465Z,48.83
2022-08-25T16:21:45.419Z,50.49
2022-08-25T16:24:18.860Z,51.26
2022-08-25T16:26:48.611Z,53.25
2022-08-25T16:29:18.210Z,54.32
2022-08-25T16:31:53.469Z,55.31
2022-08-25T16:34:28.746Z,55.14
2022-08-25T16:36:58.340Z,56.03
2022-08-25T16:39:51.024Z,55.06
2022-08-25T16:42:18.269Z,56.06
2022-08-25T16:44:45.083Z,55.89
2022-08-25T16:47:17.815Z,56.96
2022-08-25T16:49:48.136Z,57.75
2022-08-25T16:52:45.127Z,58.28
2022-08-25T16:55:16.025Z,57.68
2022-08-25T16:57:47.659Z,58.56
2022-08-25T17:00:18.493Z,59.99
2022-08-25T17:02:46.338Z,61.28
2022-08-25T17:05:15.020Z,61.33
2022-08-25T17:07:44.118Z,61.21
2022-08-25T17:10:12.693Z,61.91
2022-08-25T17:12:40.548Z,61.79
2022-08-25T17:15:07.920Z,61.55
2022-08-25T17:17:37.248Z,62.02
2022-08-25T17:20:04.946Z,61.30
2022-08-25T17:22:32.063Z,62.09
2022-08-25T17:25:00.918Z,63.00
2022-08-25T17:27:33.079Z,63.44
2022-08-25T17:30:02.631Z,63.50
2022-08-25T17:32:30.424Z,63.45
2022-08-25T17:34:58.711Z,63.90
2022-08-25T17:37:25.814Z,64.01
2022-08-25T17:40:02.446Z,64.26
2022-08-25T17:42:30.391Z,64.82
2022-08-25T17:44:57.822Z,64.78
2022-08-25T17:47:24.344Z,64.95
2022-08-25T17:49:50.861Z,65.22
2022-08-25T17:52:17.438Z,65.13
2022-08-25T17:54:43.834Z,66.39
2022-08-25T17:57:10.726Z,66.87
2022-08-25T17:59:43.112Z,67.30
2022-08-25T18:02:12.621Z,67.03
2022-08-25T18:04:39.734Z,66.48
2022-08-25T18:07:06.437Z,66.94
2022-08-25T18:09:32.966Z,67.26
2022-08-25T18:11:59.446Z,68.89
2022-08-25T18:14:26.718Z,69.64
2022-08-25T18:16:56.316Z,70.64
2022-08-25T18:19:22.760Z,72.14
2022-08-25T18:21:49.349Z,72.51
2022-08-25T18:24:18.666Z,71.72
2022-08-25T18:26:45.856Z,72.17
2022-08-25T18:29:13.189Z,71.79
2022-08-25T18:31:41.003Z,71.85
2022-08-25T18:34:10.997Z,73.07
2022-08-25T18:36:38.847Z,73.34
2022-08-25T18:39:31.511Z,74.38
2022-08-25T18:42:01.453Z,74.54
2022-08-25T18:44:29.000Z,75.16
2022-08-25T18:46:55.512Z,75.57
2022-08-25T18:49:22.053Z,76.11
2022-08-25T18:51:53.460Z,75.01
2022-08-25T18:54:23.540Z,76.27
2022-08-25T18:56:52.552Z,76.56
2022-08-25T18:59:19.758Z,77.20
2022-08-25T19:01:50.311Z,77.95
2022-08-25T19:04:16.980Z,78.45
2022-08-25T19:06:44.346Z,78.58
2022-08-25T19:09:11.687Z,79.93
2022-08-25T19:11:38.659Z,79.97
2022-08-25T19:14:12.035Z,80.43
2022-08-25T19:16:43.593Z,81.02
2022-08-25T19:19:13.101Z,81.03
2022-08-25T19:21:42.053Z,81.24
2022-08-25T19:24:11.492Z,81.78
2022-08-25T19:26:41.708Z,81.65
2022-08-25T19:29:14.512Z,81.17
2022-08-25T19:31:46.286Z,80.69
2022-08-25T19:34:28.425Z,81.13
2022-08-25T19:36:59.208Z,80.76
2022-08-25T19:39:30.253Z,80.32
2022-08-25T19:42:00.342Z,81.21
2022-08-25T19:44:30.555Z,80.75
2022-08-25T19:47:00.262Z,81.81
2022-08-25T19:49:34.882Z,81.78
2022-08-25T19:52:10.581Z,82.36
2022-08-25T19:54:47.141Z,81.88
2022-08-25T19:57:27.790Z,81.99
2022-08-25T19:59:59.595Z,82.58
2022-08-25T20:02:28.298Z,81.91
2022-08-25T20:04:59.956Z,81.35
2022-08-25T20:07:30.442Z,81.13
2022-08-25T20:09:58.412Z,81.15
2022-08-25T20:12:25.395Z,81.25
2022-08-25T20:14:53.573Z,81.18
2022-08-25T20:17:24.856Z,80.97
2022-08-25T20:19:55.944Z,81.14
2022-08-25T20:22:26.449Z,82.03
2022-08-25T20:24:56.130Z,82.17
2022-08-25T20:27:28.709Z,82.51
2022-08-25T20:29:59.786Z,82.44
2022-08-25T20:32:29.834Z,83.20
2022-08-25T20:34:56.995Z,82.89
2022-08-25T20:37:25.472Z,83.12
2022-08-25T20:39:52.507Z,83.30
2022-08-25T20:42:19.300Z,83.75
2022-08-25T20:44:47.020Z,84.03
2022-08-25T20:47:14.859Z,84.49
2022-08-25T20:49:44.891Z,83.65
2022-08-25T20:52:12.176Z,84.02
2022-08-25T20:57:26.806Z,83.67
2022-08-25T20:59:55.193Z,84.32
2022-08-25T21:02:23.127Z,83.92
2022-08-25T21:04:50.158Z,84.51
2022-08-25T21:07:23.811Z,84.60
2022-08-25T21:09:50.922Z,84.74
2022-08-25T21:12:18.520Z,84.49
2022-08-25T21:14:45.080Z,84.93
2022-08-25T21:17:13.335Z,84.25
2022-08-25T21:19:43.322Z,84.96
2022-08-25T21:22:11.503Z,85.04
2022-08-25T21:24:38.677Z,84.39
2022-08-25T21:27:10.110Z,84.38
2022-08-25T21:29:38.354Z,84.18
2022-08-25T21:32:13.945Z,84.39
2022-08-25T21:34:43.387Z,84.70
2022-08-25T21:37:12.081Z,84.76
2022-08-25T21:39:38.669Z,84.22
2022-08-25T21:42:08.070Z,84.50
2022-08-25T21:44:35.517Z,84.24
2022-08-25T21:47:04.238Z,84.03
2022-08-25T21:49:31.180Z,84.54
2022-08-25T21:52:04.597Z,84.56
2022-08-25T21:54:34.317Z,83.48
2022-08-25T21:57:04.300Z,84.24
2022-08-25T21:59:35.213Z,83.59
2022-08-25T22:02:07.749Z,84.05
2022-08-25T22:04:40.152Z,84.27
2022-08-25T22:07:08.932Z,83.75
2022-08-25T22:09:35.656Z,84.02
2022-08-25T22:12:02.710Z,83.58
2022-08-25T22:14:29.266Z,83.75
2022-08-25T22:16:55.864Z,83.85
2022-08-25T22:19:23.177Z,83.97
2022-08-25T22:21:52.409Z,84.30
2022-08-25T22:24:19.011Z,83.40
2022-08-25T22:26:47.726Z,83.72
2022-08-25T22:29:20.219Z,84.35
2022-08-25T22:31:53.314Z,84.51
2022-08-25T22:34:19.776Z,84.05
2022-08-25T22:36:59.628Z,83.98
2022-08-25T22:39:26.863Z,83.91
2022-08-25T22:41:53.909Z,83.85
2022-08-25T22:44:20.394Z,83.66
2022-08-25T22:46:46.951Z,83.98
2022-08-25T22:49:13.837Z,84.25
2022-08-25T22:51:42.215Z,84.67
2022-08-25T22:54:09.573Z,84.49
2022-08-25T22:56:37.541Z,84.20
2022-08-25T22:59:10.951Z,84.65
2022-08-25T23:01:38.493Z,84.81
2022-08-25T23:04:07.286Z,84.56
2022-08-25T23:06:37.056Z,84.33
2022-08-25T23:09:06.902Z,84.55
2022-08-25T23:11:33.700Z,84.54
2022-08-25T23:14:00.599Z,84.17
2022-08-25T23:16:28.249Z,85.40
2022-08-25T23:18:54.814Z,84.38
2022-08-25T23:21:41.218Z,83.89
2022-08-25T23:24:13.466Z,84.17
2022-08-25T23:26:43.900Z,84.34
2022-08-25T23:29:17.707Z,83.65
2022-08-25T23:31:47.528Z,83.51
2022-08-25T23:34:15.013Z,83.64
2022-08-25T23:36:41.834Z,83.25
2022-08-25T23:39:12.016Z,83.36
2022-08-25T23:41:41.825Z,82.86
2022-08-25T23:44:11.820Z,84.01
2022-08-25T23:46:44.888Z,84.41
2022-08-25T23:49:12.594Z,82.75
2022-08-25T23:51:43.148Z,83.34
2022-08-25T23:54:11.727Z,83.28
2022-08-25T23:56:42.355Z,83.63
2022-08-25T23:59:13.005Z,84.08
